createdAt,value
2019-03-15T00:00:46.891Z,6.40
2019-03-15T00:03:13.476Z,6.40
2019-03-15T00:05:40.010Z,6.40
2019-03-15T00:08:06.808Z,6.40
2019-03-15T00:10:33.650Z,6.50
2019-03-15T00:13:00.497Z,6.50
2019-03-15T00:15:27.338Z,6.50
2019-03-15T00:17:54.184Z,6.50
2019-03-15T00:20:21.026Z,6.50
2019-03-15T00:22:47.868Z,6.50
2019-03-15T00:25:14.714Z,6.50
2019-03-15T00:27:41.557Z,6.50
2019-03-15T00:30:10.200Z,6.60
2019-03-15T00:32:37.085Z,6.60
2019-03-15T00:35:04.850Z,6.50
2019-03-15T00:37:31.694Z,6.60
2019-03-15T00:39:58.537Z,6.60
2019-03-15T00:42:25.392Z,6.60
2019-03-15T00:44:52.226Z,6.60
2019-03-15T00:47:19.067Z,6.60
2019-03-15T00:49:45.911Z,6.60
2019-03-15T00:52:12.754Z,6.70
2019-03-15T00:54:39.598Z,6.70
2019-03-15T00:57:06.442Z,6.70
2019-03-15T00:59:33.284Z,6.80
2019-03-15T01:02:00.176Z,6.80
2019-03-15T01:04:26.971Z,6.70
2019-03-15T01:06:53.816Z,6.70
2019-03-15T01:09:20.665Z,6.60
2019-03-15T01:11:47.240Z,6.60
2019-03-15T01:14:14.038Z,6.60
2019-03-15T01:16:40.882Z,6.50
2019-03-15T01:19:07.726Z,6.50
2019-03-15T01:21:34.568Z,6.40
2019-03-15T01:24:01.411Z,6.40
2019-03-15T01:26:27.996Z,6.30
2019-03-15T01:28:54.791Z,6.20
2019-03-15T01:31:21.635Z,6.30
2019-03-15T01:33:48.478Z,6.30
2019-03-15T01:36:15.322Z,6.20
2019-03-15T01:38:42.168Z,6.20
2019-03-15T01:41:09.010Z,6.20
2019-03-15T01:43:35.855Z,6.20
2019-03-15T01:46:02.695Z,6.30
2019-03-15T01:48:29.276Z,6.30
2019-03-15T01:50:56.075Z,6.20
2019-03-15T01:53:23.496Z,6.10
2019-03-15T01:55:50.378Z,6.10
2019-03-15T01:58:17.954Z,6.10
2019-03-15T02:00:44.678Z,6.10
2019-03-15T02:03:11.521Z,6.10
2019-03-15T02:05:38.364Z,6.20
2019-03-15T02:08:05.210Z,6.30
2019-03-15T02:10:31.802Z,6.30
2019-03-15T02:12:58.908Z,6.30
2019-03-15T02:15:25.446Z,6.40
2019-03-15T02:17:52.682Z,6.40
2019-03-15T02:20:20.599Z,6.40
2019-03-15T02:22:47.191Z,6.40
2019-03-15T02:25:14.032Z,6.40
2019-03-15T02:27:40.876Z,6.40
2019-03-15T02:30:09.564Z,6.30
2019-03-15T02:32:36.407Z,6.30
2019-03-15T02:35:03.916Z,6.20
2019-03-15T02:37:30.732Z,6.20
2019-03-15T02:39:57.294Z,6.20
2019-03-15T02:42:24.089Z,6.10
2019-03-15T02:44:50.935Z,6.10
2019-03-15T02:47:17.730Z,6.10
2019-03-15T02:49:45.540Z,6.10
2019-03-15T02:52:12.383Z,6.10
2019-03-15T02:54:39.232Z,6.10
2019-03-15T02:57:06.366Z,6.10
2019-03-15T02:59:33.221Z,6.10
2019-03-15T03:04:27.522Z,6.00
2019-03-15T03:06:54.773Z,6.00
2019-03-15T03:09:21.515Z,6.00
2019-03-15T03:11:48.619Z,6.10
2019-03-15T03:14:16.741Z,6.10
2019-03-15T03:16:43.585Z,6.10
2019-03-15T03:19:10.425Z,6.10
2019-03-15T03:21:37.270Z,6.10
2019-03-15T03:24:04.121Z,6.10
2019-03-15T03:26:30.955Z,6.10
2019-03-15T03:28:57.801Z,6.10
2019-03-15T03:31:24.688Z,6.10
2019-03-15T03:33:51.490Z,6.10
2019-03-15T03:36:18.330Z,6.10
2019-03-15T03:38:45.174Z,6.10
2019-03-15T03:41:12.022Z,6.20
2019-03-15T03:43:38.861Z,6.10
2019-03-15T03:46:05.706Z,6.10
2019-03-15T03:48:32.547Z,6.20
2019-03-15T03:51:00.179Z,6.20
2019-03-15T03:53:27.155Z,6.20
2019-03-15T03:55:54.064Z,6.20
2019-03-15T03:58:20.842Z,6.20
2019-03-15T04:00:47.686Z,6.10
2019-03-15T04:03:14.529Z,6.10
2019-03-15T04:05:41.372Z,6.10
2019-03-15T04:08:08.217Z,6.00
2019-03-15T04:10:35.060Z,6.10
2019-03-15T04:13:01.903Z,6.10
2019-03-15T04:15:28.746Z,6.10
2019-03-15T04:17:55.330Z,6.10
2019-03-15T04:20:22.129Z,6.20
2019-03-15T04:22:48.969Z,6.30
2019-03-15T04:25:15.815Z,6.30
2019-03-15T04:27:42.656Z,6.40
2019-03-15T04:30:10.114Z,6.40
2019-03-15T04:32:36.957Z,6.50
2019-03-15T04:35:04.152Z,6.60
2019-03-15T04:37:30.959Z,6.70
2019-03-15T04:39:57.797Z,6.80
2019-03-15T04:42:24.639Z,6.80
2019-03-15T04:44:51.486Z,6.90
2019-03-15T04:47:18.325Z,6.90
2019-03-15T04:49:45.052Z,6.90
2019-03-15T04:52:11.709Z,7.00
2019-03-15T04:54:38.549Z,7.00
2019-03-15T04:57:04.952Z,7.00
2019-03-15T04:59:31.621Z,7.00
2019-03-15T05:01:58.467Z,7.10
2019-03-15T05:04:25.313Z,7.10
2019-03-15T05:06:52.152Z,7.10
2019-03-15T05:09:18.997Z,7.20
2019-03-15T05:11:45.576Z,7.20
2019-03-15T05:14:12.375Z,7.30
2019-03-15T05:16:39.218Z,7.30
2019-03-15T05:19:06.062Z,7.30
2019-03-15T05:21:32.904Z,7.30
2019-03-15T05:23:59.748Z,7.40
2019-03-15T05:26:26.331Z,7.50
2019-03-15T05:28:53.128Z,7.50
2019-03-15T05:31:19.971Z,7.60
2019-03-15T05:33:46.816Z,7.60
2019-03-15T05:36:13.658Z,7.60
2019-03-15T05:38:40.501Z,7.60
2019-03-15T05:41:07.085Z,7.60
2019-03-15T05:43:33.881Z,7.50
2019-03-15T05:46:00.727Z,7.50
2019-03-15T05:48:27.408Z,7.50
2019-03-15T05:50:54.104Z,7.40
2019-03-15T05:53:20.948Z,7.30
2019-03-15T05:55:47.791Z,7.30
2019-03-15T05:58:14.636Z,7.10
2019-03-15T06:00:41.478Z,7.00
2019-03-15T06:03:08.322Z,6.90
2019-03-15T06:05:35.164Z,6.90
2019-03-15T06:08:02.008Z,6.90
2019-03-15T06:10:28.851Z,6.80
2019-03-15T06:12:55.432Z,6.70
2019-03-15T06:15:22.232Z,6.70
2019-03-15T06:17:49.075Z,6.70
2019-03-15T06:20:15.919Z,6.60
2019-03-15T06:22:42.642Z,6.60
2019-03-15T06:25:09.649Z,6.60
2019-03-15T06:27:36.189Z,6.60
2019-03-15T06:30:04.156Z,6.60
2019-03-15T06:32:30.749Z,6.60
2019-03-15T06:34:57.593Z,6.60
2019-03-15T06:37:24.436Z,6.60
2019-03-15T06:39:51.283Z,6.60
2019-03-15T06:42:18.123Z,6.60
2019-03-15T06:44:57.061Z,6.60
2019-03-15T06:47:13.039Z,6.50
2019-03-15T06:49:39.882Z,6.50
2019-03-15T06:52:06.508Z,6.40
2019-03-15T06:54:33.266Z,6.40
2019-03-15T06:57:00.122Z,6.40
2019-03-15T06:59:26.688Z,6.40
2019-03-15T07:01:53.487Z,6.50
2019-03-15T07:04:20.328Z,6.50
2019-03-15T07:06:46.912Z,6.50
2019-03-15T07:09:13.709Z,6.50
2019-03-15T07:11:40.551Z,6.50
2019-03-15T07:14:07.401Z,6.50
2019-03-15T07:16:34.240Z,6.40
2019-03-15T07:19:01.083Z,6.40
2019-03-15T07:21:27.664Z,6.40
2019-03-15T07:23:57.577Z,6.30
2019-03-15T07:26:22.533Z,6.30
2019-03-15T07:28:49.377Z,6.30
2019-03-15T07:31:16.238Z,6.20
2019-03-15T07:33:43.066Z,6.20
2019-03-15T07:36:09.908Z,6.20
2019-03-15T07:38:36.756Z,6.10
2019-03-15T07:41:03.595Z,6.10
2019-03-15T07:43:30.438Z,6.10
2019-03-15T07:45:57.283Z,6.10
2019-03-15T07:48:26.779Z,5.90
2019-03-15T07:50:52.196Z,6.00
2019-03-15T07:53:19.040Z,5.90
2019-03-15T07:55:45.884Z,5.80
2019-03-15T07:58:12.727Z,5.80
2019-03-15T08:00:39.311Z,5.90
2019-03-15T08:03:06.107Z,5.90
2019-03-15T08:05:32.950Z,6.00
2019-03-15T08:07:59.793Z,5.90
2019-03-15T08:10:26.637Z,5.90
2019-03-15T08:12:53.483Z,5.90
2019-03-15T08:15:20.323Z,5.90
2019-03-15T08:17:47.174Z,5.90
2019-03-15T08:20:14.318Z,5.80
2019-03-15T08:22:41.161Z,5.80
2019-03-15T08:25:08.926Z,5.80
2019-03-15T08:27:35.770Z,5.80
2019-03-15T08:30:04.149Z,5.80
2019-03-15T08:32:30.993Z,5.80
2019-03-15T08:34:57.529Z,5.80
2019-03-15T08:37:24.065Z,5.80
2019-03-15T08:39:50.645Z,5.70
2019-03-15T08:42:17.185Z,5.70
2019-03-15T08:44:43.981Z,5.60
2019-03-15T08:47:10.825Z,5.50
2019-03-15T08:49:37.669Z,5.50
2019-03-15T08:52:04.511Z,5.40
2019-03-15T08:54:31.355Z,5.20
2019-03-15T08:56:58.199Z,5.20
2019-03-15T08:59:25.046Z,5.20
2019-03-15T09:01:51.886Z,5.10
2019-03-15T09:04:21.334Z,5.10
2019-03-15T09:06:47.108Z,5.10
2019-03-15T09:09:13.688Z,5.10
2019-03-15T09:11:40.488Z,5.10
2019-03-15T09:14:07.331Z,5.00
2019-03-15T09:16:34.175Z,5.00
2019-03-15T09:19:01.019Z,5.10
2019-03-15T09:21:27.861Z,5.20
2019-03-15T09:23:54.705Z,5.10
2019-03-15T09:26:21.548Z,5.10
2019-03-15T09:28:48.391Z,5.10
2019-03-15T09:31:14.972Z,5.10
2019-03-15T09:33:41.771Z,5.10
2019-03-15T09:36:08.615Z,5.10
2019-03-15T09:38:35.150Z,5.10
2019-03-15T09:41:01.998Z,5.10
2019-03-15T09:43:28.838Z,5.20
2019-03-15T09:45:55.806Z,5.20
2019-03-15T09:48:22.525Z,5.30
2019-03-15T09:50:51.508Z,5.20
2019-03-15T09:53:17.443Z,5.30
2019-03-15T09:55:44.284Z,5.40
2019-03-15T09:58:11.128Z,5.40
2019-03-15T10:00:37.708Z,5.40
2019-03-15T10:03:04.543Z,5.50
2019-03-15T10:05:31.353Z,5.60
2019-03-15T10:07:58.193Z,5.60
2019-03-15T10:10:24.776Z,5.60
2019-03-15T10:13:04.677Z,5.70
2019-03-15T10:15:19.953Z,5.70
2019-03-15T10:17:46.853Z,5.70
2019-03-15T10:20:14.300Z,5.80
2019-03-15T10:22:41.097Z,5.80
2019-03-15T10:25:09.732Z,5.90
2019-03-15T10:27:36.320Z,5.90
2019-03-15T10:30:04.393Z,6.10
2019-03-15T10:32:31.245Z,6.20
2019-03-15T10:34:58.080Z,6.20
2019-03-15T10:37:24.925Z,6.30
2019-03-15T10:39:51.768Z,6.50
2019-03-15T10:42:18.624Z,6.50
2019-03-15T10:44:45.192Z,6.60
2019-03-15T10:47:11.990Z,6.60
2019-03-15T10:49:38.835Z,6.60
2019-03-15T10:52:05.679Z,6.60
2019-03-15T10:54:32.519Z,6.60
2019-03-15T10:56:59.371Z,6.60
2019-03-15T10:59:26.207Z,6.60
2019-03-15T11:01:53.051Z,6.70
2019-03-15T11:04:19.894Z,6.70
2019-03-15T11:06:46.737Z,6.70
2019-03-15T11:09:13.581Z,6.70
2019-03-15T11:11:40.181Z,6.70
2019-03-15T11:14:06.723Z,6.70
2019-03-15T11:16:33.497Z,6.70
2019-03-15T11:19:00.340Z,6.70
2019-03-15T11:21:26.925Z,6.70
2019-03-15T11:23:53.720Z,6.50
2019-03-15T11:26:20.564Z,6.40
2019-03-15T11:28:47.101Z,6.50
2019-03-15T11:31:13.946Z,6.50
2019-03-15T11:33:42.164Z,6.50
2019-03-15T11:36:08.863Z,6.50
2019-03-15T11:38:35.706Z,6.60
2019-03-15T11:41:05.916Z,6.60
2019-03-15T11:43:32.407Z,6.60
2019-03-15T11:45:58.997Z,6.60
2019-03-15T11:48:25.580Z,6.70
2019-03-15T11:50:52.376Z,6.80
2019-03-15T11:53:19.220Z,6.90
2019-03-15T11:55:46.063Z,6.90
2019-03-15T11:58:12.981Z,7.00
2019-03-15T12:00:39.750Z,6.90
2019-03-15T12:03:06.595Z,6.90
2019-03-15T12:05:33.438Z,7.00
2019-03-15T12:08:00.282Z,7.00
2019-03-15T12:10:27.124Z,7.00
2019-03-15T12:12:53.968Z,7.00
2019-03-15T12:15:20.816Z,6.90
2019-03-15T12:17:47.654Z,6.90
2019-03-15T12:20:14.239Z,7.00
2019-03-15T12:22:41.038Z,6.90
2019-03-15T12:25:08.491Z,6.90
2019-03-15T12:27:35.350Z,7.00
2019-03-15T12:30:02.842Z,7.00
2019-03-15T12:32:29.637Z,7.10
2019-03-15T12:34:56.480Z,7.10
2019-03-15T12:37:23.330Z,7.10
2019-03-15T12:39:50.166Z,7.20
2019-03-15T12:42:17.014Z,7.20
2019-03-15T12:44:43.856Z,7.20
2019-03-15T12:47:10.444Z,7.20
2019-03-15T12:49:37.236Z,7.20
2019-03-15T12:52:03.769Z,7.30
2019-03-15T12:54:30.614Z,7.30
2019-03-15T12:56:57.199Z,7.20
2019-03-15T12:59:23.992Z,7.30
2019-03-15T13:01:50.839Z,7.50
2019-03-15T13:04:17.679Z,7.50
2019-03-15T13:06:44.523Z,7.50
2019-03-15T13:09:11.367Z,7.50
2019-03-15T13:11:38.211Z,7.50
2019-03-15T13:14:05.360Z,7.50
2019-03-15T13:16:32.208Z,7.50
2019-03-15T13:18:59.047Z,7.60
2019-03-15T13:21:25.629Z,7.70
2019-03-15T13:23:52.426Z,7.80
2019-03-15T13:26:19.278Z,7.90
2019-03-15T13:28:47.650Z,8.00
2019-03-15T13:31:14.494Z,8.10
2019-03-15T13:33:41.336Z,8.10
2019-03-15T13:36:08.180Z,8.10
2019-03-15T13:38:35.024Z,8.10
2019-03-15T13:41:01.866Z,8.10
2019-03-15T13:43:28.449Z,8.30
2019-03-15T13:45:55.249Z,8.50
2019-03-15T13:48:22.089Z,8.70
2019-03-15T13:50:48.933Z,8.70
2019-03-15T13:53:15.470Z,8.70
2019-03-15T13:55:42.005Z,8.90
2019-03-15T13:58:08.848Z,9.10
2019-03-15T14:00:35.568Z,9.10
2019-03-15T14:03:02.229Z,9.10
2019-03-15T14:05:29.072Z,9.10
2019-03-15T14:07:55.918Z,9.30
2019-03-15T14:10:22.759Z,9.40
2019-03-15T14:12:49.602Z,9.40
2019-03-15T14:15:19.518Z,9.70
2019-03-15T14:17:46.368Z,9.70
2019-03-15T14:20:13.208Z,9.80
2019-03-15T14:22:40.049Z,9.80
2019-03-15T14:25:08.121Z,9.90
2019-03-15T14:27:37.717Z,10.00
2019-03-15T14:30:04.880Z,9.90
2019-03-15T14:32:31.726Z,9.80
2019-03-15T14:34:58.567Z,9.80
2019-03-15T14:37:25.448Z,9.80
2019-03-15T14:39:52.410Z,9.80
2019-03-15T14:42:19.132Z,9.90
2019-03-15T14:44:46.116Z,9.90
2019-03-15T14:47:12.707Z,9.90
2019-03-15T14:49:39.319Z,9.90
2019-03-15T14:52:06.164Z,9.90
2019-03-15T14:54:33.007Z,9.90
2019-03-15T14:56:59.851Z,9.90
2019-03-15T14:59:26.693Z,9.90
2019-03-15T15:01:53.285Z,9.90
2019-03-15T15:04:20.073Z,9.90
2019-03-15T15:06:46.916Z,10.00
2019-03-15T15:09:13.760Z,10.00
2019-03-15T15:11:40.603Z,10.10
2019-03-15T15:14:07.448Z,10.00
2019-03-15T15:16:34.028Z,9.90
2019-03-15T15:19:00.825Z,9.90
2019-03-15T15:21:27.670Z,9.80
2019-03-15T15:23:54.513Z,9.90
2019-03-15T15:26:21.358Z,9.90
2019-03-15T15:28:48.200Z,10.00
2019-03-15T15:31:15.046Z,10.20
2019-03-15T15:33:41.888Z,10.40
2019-03-15T15:36:08.730Z,10.40
2019-03-15T15:38:35.313Z,10.40
2019-03-15T15:41:02.109Z,10.40
2019-03-15T15:43:28.954Z,10.40
2019-03-15T15:45:55.537Z,10.30
2019-03-15T15:48:22.332Z,10.30
2019-03-15T15:50:49.177Z,10.20
2019-03-15T15:53:16.025Z,10.10
2019-03-15T15:55:42.863Z,10.10
2019-03-15T15:58:17.870Z,10.00
2019-03-15T16:00:38.086Z,10.00
2019-03-15T16:03:04.931Z,10.00
2019-03-15T16:05:31.774Z,9.90
2019-03-15T16:07:58.620Z,9.90
2019-03-15T16:10:25.471Z,9.90
2019-03-15T16:12:52.303Z,9.90
2019-03-15T16:15:19.149Z,9.90
2019-03-15T16:17:46.298Z,9.90
2019-03-15T16:20:13.118Z,10.00
2019-03-15T16:22:39.679Z,10.00
2019-03-15T16:25:07.445Z,10.10
2019-03-15T16:27:33.988Z,10.10
2019-03-15T16:30:00.514Z,10.20
2019-03-15T16:32:28.711Z,10.20
2019-03-15T16:34:55.441Z,10.20
2019-03-15T16:37:22.013Z,10.30
2019-03-15T16:39:48.549Z,10.40
2019-03-15T16:42:15.345Z,10.50
2019-03-15T16:44:42.190Z,10.50
2019-03-15T16:47:09.034Z,10.60
2019-03-15T16:49:35.879Z,10.80
2019-03-15T16:52:02.719Z,10.90
2019-03-15T16:54:29.562Z,10.90
2019-03-15T16:56:56.416Z,11.00
2019-03-15T16:59:23.250Z,11.00
2019-03-15T17:01:49.828Z,11.10
2019-03-15T17:04:16.632Z,11.20
2019-03-15T17:06:43.210Z,11.20
2019-03-15T17:09:10.008Z,11.20
2019-03-15T17:11:36.852Z,11.20
2019-03-15T17:14:03.709Z,11.30
2019-03-15T17:16:30.539Z,11.30
2019-03-15T17:18:57.455Z,11.30
2019-03-15T17:21:24.226Z,11.30
2019-03-15T17:23:51.070Z,11.20
2019-03-15T17:26:17.912Z,11.20
2019-03-15T17:28:57.772Z,11.30
2019-03-15T17:31:12.829Z,11.30
2019-03-15T17:33:39.671Z,11.40
2019-03-15T17:36:06.254Z,11.40
2019-03-15T17:38:33.051Z,11.40
2019-03-15T17:40:59.895Z,11.40
2019-03-15T17:43:26.737Z,11.30
2019-03-15T17:45:53.581Z,11.30
2019-03-15T17:48:20.424Z,11.20
2019-03-15T17:50:47.268Z,11.30
2019-03-15T17:53:14.111Z,11.20
2019-03-15T17:55:41.880Z,11.30
2019-03-15T17:58:08.636Z,11.30
2019-03-15T18:00:41.402Z,11.30
2019-03-15T18:03:20.151Z,11.30
2019-03-15T18:05:36.326Z,11.30
2019-03-15T18:08:03.159Z,11.30
2019-03-15T18:10:32.457Z,11.30
2019-03-15T18:12:58.381Z,11.30
2019-03-15T18:15:31.467Z,11.40
2019-03-15T18:18:00.166Z,11.40
2019-03-15T18:20:27.520Z,11.50
2019-03-15T18:22:54.361Z,11.50
2019-03-15T18:25:21.511Z,11.40
2019-03-15T18:27:48.659Z,11.40
2019-03-15T18:30:16.117Z,11.40
2019-03-15T18:32:42.960Z,11.40
2019-03-15T18:35:10.726Z,11.50
2019-03-15T18:37:37.616Z,11.50
2019-03-15T18:40:05.940Z,11.50
2019-03-15T18:42:32.792Z,11.50
2019-03-15T18:44:59.634Z,11.50
2019-03-15T18:47:26.478Z,11.60
2019-03-15T18:49:53.323Z,11.60
2019-03-15T18:52:20.166Z,11.70
2019-03-15T18:54:47.008Z,11.70
2019-03-15T18:57:13.852Z,11.80
2019-03-15T18:59:40.615Z,11.70
2019-03-15T19:02:07.538Z,11.60
2019-03-15T19:04:34.382Z,11.60
2019-03-15T19:07:00.964Z,11.60
2019-03-15T19:09:27.500Z,11.60
2019-03-15T19:11:54.308Z,11.60
2019-03-15T19:14:21.144Z,11.60
2019-03-15T19:16:47.681Z,11.60
2019-03-15T19:19:14.222Z,11.60
2019-03-15T19:21:41.059Z,11.60
2019-03-15T19:24:09.756Z,11.60
2019-03-15T19:26:36.587Z,11.60
2019-03-15T19:29:03.169Z,11.50
2019-03-15T19:31:29.704Z,11.50
2019-03-15T19:33:56.503Z,11.50
2019-03-15T19:36:23.347Z,11.50
2019-03-15T19:38:49.945Z,11.50
2019-03-15T19:41:16.465Z,11.60
2019-03-15T19:43:43.271Z,11.60
2019-03-15T19:46:12.304Z,11.60
2019-03-15T19:48:41.955Z,11.60
2019-03-15T19:51:07.484Z,11.70
2019-03-15T19:53:35.062Z,11.60
2019-03-15T19:56:03.077Z,11.60
2019-03-15T19:58:29.876Z,11.60
2019-03-15T20:00:57.248Z,11.60
2019-03-15T20:03:44.495Z,11.60
2019-03-15T20:06:14.374Z,11.70
2019-03-15T20:08:43.034Z,11.70
2019-03-15T20:11:11.209Z,11.60
2019-03-15T20:13:37.947Z,11.60
2019-03-15T20:16:04.487Z,11.60
2019-03-15T20:18:31.339Z,11.60
2019-03-15T20:20:58.183Z,11.60
2019-03-15T20:23:25.013Z,11.60
2019-03-15T20:25:52.064Z,11.60
2019-03-15T20:28:18.700Z,11.60
2019-03-15T20:30:52.431Z,11.60
2019-03-15T20:33:19.148Z,11.60
2019-03-15T20:35:45.990Z,11.70
2019-03-15T20:38:12.697Z,11.70
2019-03-15T20:40:39.369Z,11.60
2019-03-15T20:43:06.215Z,11.60
2019-03-15T20:45:32.798Z,11.50
2019-03-15T20:47:59.595Z,11.60
2019-03-15T20:50:26.435Z,11.50
2019-03-15T20:53:03.024Z,11.50
2019-03-15T20:55:23.380Z,11.50
2019-03-15T20:57:50.053Z,11.50
2019-03-15T21:00:30.104Z,11.40
2019-03-15T21:02:48.656Z,11.50
2019-03-15T21:05:15.483Z,11.50
2019-03-15T21:07:43.832Z,11.60
2019-03-15T21:10:12.550Z,11.60
2019-03-15T21:12:39.708Z,11.60
2019-03-15T21:15:09.594Z,11.70
2019-03-15T21:17:36.460Z,11.70
2019-03-15T21:20:06.397Z,11.80
2019-03-15T21:22:33.531Z,11.80
2019-03-15T21:25:00.368Z,11.80
2019-03-15T21:27:27.212Z,11.90
2019-03-15T21:29:54.056Z,11.90
2019-03-15T21:32:20.976Z,11.90
2019-03-15T21:34:48.050Z,11.80
2019-03-15T21:37:14.894Z,11.80
2019-03-15T21:39:42.351Z,11.80
2019-03-15T21:42:09.506Z,11.90
2019-03-15T21:44:36.345Z,11.90
2019-03-15T21:47:03.190Z,12.00
2019-03-15T21:49:30.080Z,12.00
2019-03-15T21:51:56.875Z,11.90
2019-03-15T21:54:23.764Z,11.90
2019-03-15T21:56:50.563Z,11.90
2019-03-15T21:59:17.408Z,11.90
2019-03-15T22:01:44.660Z,11.90
2019-03-15T22:04:11.402Z,11.90
2019-03-15T22:06:38.084Z,11.90
2019-03-15T22:09:05.136Z,11.90
2019-03-15T22:11:31.668Z,12.00
2019-03-15T22:13:58.468Z,12.00
2019-03-15T22:16:25.313Z,12.00
2019-03-15T22:18:52.217Z,12.00
2019-03-15T22:21:18.998Z,12.00
2019-03-15T22:23:45.532Z,12.00
2019-03-15T22:26:12.069Z,11.90
2019-03-15T22:28:38.912Z,11.90
2019-03-15T22:31:16.015Z,11.90
2019-03-15T22:33:33.829Z,11.90
2019-03-15T22:36:00.671Z,12.10
2019-03-15T22:38:27.519Z,12.10
2019-03-15T22:40:54.261Z,12.10
2019-03-15T22:43:20.895Z,12.00
2019-03-15T22:45:47.738Z,12.00
2019-03-15T22:48:14.582Z,12.00
2019-03-15T22:50:41.424Z,11.90
2019-03-15T22:53:08.267Z,11.90
2019-03-15T22:55:34.912Z,11.90
2019-03-15T22:58:01.647Z,11.90
2019-03-15T23:00:30.337Z,11.90
2019-03-15T23:02:57.030Z,11.90
2019-03-15T23:05:24.020Z,12.00
2019-03-15T23:07:50.718Z,12.00
2019-03-15T23:10:17.400Z,12.00
2019-03-15T23:12:44.245Z,12.00
2019-03-15T23:15:11.395Z,12.00
2019-03-15T23:17:38.238Z,12.00
2019-03-15T23:20:05.882Z,12.00
2019-03-15T23:22:32.540Z,12.00
2019-03-15T23:24:59.385Z,12.00
2019-03-15T23:27:25.965Z,12.00
2019-03-15T23:29:52.762Z,11.90
2019-03-15T23:32:19.605Z,12.00
2019-03-15T23:34:46.449Z,11.90
2019-03-15T23:37:13.292Z,11.90
2019-03-15T23:39:40.136Z,11.90
2019-03-15T23:42:06.715Z,11.80
2019-03-15T23:44:33.517Z,11.80
2019-03-15T23:47:00.358Z,11.70
2019-03-15T23:49:26.940Z,11.80
2019-03-15T23:51:53.739Z,11.70
2019-03-15T23:54:20.587Z,11.70
2019-03-15T23:56:47.425Z,11.70
2019-03-15T23:59:14.269Z,11.70
